Time;durP1;ratioP1;P1;durP2;ratioP2;P2;SDS_P1;SDS_P2;PMS_P1;PMS_P2;Temp;Humidity;BMP_temperature;BMP_pressure;BME280_temperature;BME280_humidity;BME280_pressure;Samples;Min_cycle;Max_cycle;Signal;HPM_P1;HPM_P2
2023/04/02 00:02:15;;;;;;;;;;;;;;;3.98;100.00;99957.73;214333;1286;139593;-86
2023/04/02 00:07:32;;;;;;;13.40;4.40;;;;;;;3.99;100.00;99962.71;214522;1291;124950;-88
2023/04/02 00:12:32;;;;;;;;;;;;;;;3.98;100.00;99964.19;214087;1289;138833;-86
2023/04/02 00:17:32;;;;;;;13.30;5.90;;;;;;;3.98;100.00;99963.48;214413;1289;125148;-88
2023/04/02 00:22:33;;;;;;;12.00;5.80;;;;;;;3.98;100.00;99970.34;213936;1286;138865;-88
2023/04/02 00:27:34;;;;;;;10.90;4.50;;;;;;;3.98;100.00;99976.84;214620;1285;97996;-86
2023/04/02 00:32:35;;;;;;;8.70;4.10;;;;;;;3.95;100.00;99977.54;213891;1289;139153;-87
2023/04/02 00:37:41;;;;;;;10.70;4.80;;;;;;;3.93;100.00;99987.59;214514;1289;138339;-86
2023/04/02 00:42:43;;;;;;;10.90;4.80;;;;;;;3.92;100.00;99992.46;213941;1289;138941;-87
2023/04/02 00:47:43;;;;;;;10.60;4.90;;;;;;;3.92;100.00;99991.91;214539;1285;138875;-87
2023/04/02 00:52:47;;;;;;;12.60;5.10;;;;;;;3.90;100.00;99992.80;214036;1289;138671;-85
2023/04/02 00:57:49;;;;;;;11.30;5.50;;;;;;;3.89;100.00;100000.23;214469;1286;111124;-85
2023/04/02 01:03:15;;;;;;;9.40;4.60;;;;;;;3.89;100.00;100006.54;214016;1289;140327;-86
2023/04/02 01:08:37;;;;;;;10.40;5.00;;;;;;;3.91;100.00;100011.92;214362;1285;138637;-87
2023/04/02 01:14:15;;;;;;;15.20;6.80;;;;;;;3.88;100.00;100013.96;213883;1288;139672;-86
2023/04/02 01:19:41;;;;;;;10.30;4.60;;;;;;;3.85;100.00;100021.25;213999;1289;139280;-84
2023/04/02 01:24:42;;;;;;;11.60;5.10;;;;;;;3.83;100.00;100023.69;214417;1286;139189;-86
2023/04/02 01:29:49;;;;;;;11.40;4.70;;;;;;;3.81;100.00;100032.64;213921;1285;139227;-85
2023/04/02 01:34:51;;;;;;;11.00;5.00;;;;;;;3.83;100.00;100035.25;214415;1286;138990;-86
2023/04/02 01:40:06;;;;;;;11.80;5.40;;;;;;;3.85;100.00;100041.07;214034;1290;139716;-86
2023/04/02 01:45:11;;;;;;;12.10;5.20;;;;;;;3.82;100.00;100041.52;214474;1285;138492;-87
2023/04/02 01:50:11;;;;;;;11.50;5.30;;;;;;;3.81;100.00;100052.30;213921;1289;139074;-86
2023/04/02 01:55:16;;;;;;;13.10;5.40;;;;;;;3.80;100.00;100058.88;214469;1289;138847;-86
2023/04/02 02:00:17;;;;;;;11.60;5.20;;;;;;;3.78;100.00;100064.82;214075;1288;138909;-88
2023/04/02 02:05:21;;;;;;;11.50;4.70;;;;;;;3.80;100.00;100073.49;214571;1285;138986;-87
2023/04/02 02:10:32;;;;;;;12.30;5.00;;;;;;;3.80;100.00;100075.61;213984;1286;139289;-87
2023/04/02 02:15:35;;;;;;;10.80;4.90;;;;;;;3.78;100.00;100080.30;214503;1286;106140;-87
2023/04/02 02:20:35;;;;;;;9.30;4.30;;;;;;;3.78;100.00;100083.64;213947;1285;139830;-88
2023/04/02 02:25:36;;;;;;;13.70;5.00;;;;;;;3.77;100.00;100089.98;214605;1285;138675;-88
2023/04/02 02:31:11;;;;;;;9.30;4.30;;;;;;;3.76;100.00;100097.09;214012;1286;139155;-87
2023/04/02 02:36:15;;;;;;;11.00;3.90;;;;;;;3.76;100.00;100100.75;214537;1285;138649;-86
2023/04/02 02:41:23;;;;;;;14.00;4.60;;;;;;;3.76;100.00;100102.23;213884;1285;140286;-87
2023/04/02 02:46:26;;;;;;;8.30;3.80;;;;;;;3.73;100.00;100111.06;214505;1285;138944;-87
2023/04/02 02:51:40;;;;;;;11.20;4.40;;;;;;;3.71;100.00;100120.89;214215;1286;139459;-86
2023/04/02 02:56:45;;;;;;;8.80;3.50;;;;;;;3.72;100.00;100127.98;214445;1289;139522;-86
2023/04/02 03:01:46;;;;;;;6.60;3.00;;;;;;;3.70;100.00;100134.59;214012;1286;138815;-86
2023/04/02 03:06:51;;;;;;;8.80;3.40;;;;;;;3.67;100.00;100145.47;214620;1287;139332;-86
2023/04/02 03:12:01;;;;;;;6.50;3.20;;;;;;;3.68;100.00;100147.84;213995;1285;138910;-85
2023/04/02 03:17:12;;;;;;;5.10;2.20;;;;;;;3.65;100.00;100162.02;214481;1285;138932;-85
2023/04/02 03:22:20;;;;;;;5.50;2.50;;;;;;;3.57;100.00;100170.85;214180;1286;139138;-87
2023/04/02 03:27:31;;;;;;;4.60;1.60;;;;;;;3.50;100.00;100176.98;214676;1285;97947;-87
2023/04/02 03:32:37;;;;;;;4.10;1.90;;;;;;;3.44;100.00;100175.84;214257;1285;138960;-86
2023/04/02 03:37:54;;;;;;;6.00;1.70;;;;;;;3.45;100.00;100182.25;214542;1285;139691;-87
2023/04/02 03:43:05;;;;;;;3.80;1.80;;;;;;;3.44;100.00;100185.23;214193;1285;138761;-86
2023/04/02 03:48:11;;;;;;;5.40;2.00;;;;;;;3.43;100.00;100193.20;214486;1286;138728;-85
2023/04/02 03:53:12;;;;;;;4.20;1.90;;;;;;;3.43;100.00;100206.33;214126;1285;139522;-87
2023/04/02 03:58:23;;;;;;;4.00;1.90;;;;;;;3.42;100.00;100212.83;214543;1285;138675;-86
2023/04/02 04:04:01;;;;;;;4.50;2.30;;;;;;;3.41;100.00;100225.09;214124;1285;138927;-86
2023/04/02 04:09:08;;;;;;;4.90;1.80;;;;;;;3.40;100.00;100236.85;213791;1285;138778;-87
2023/04/02 04:14:11;;;;;;;;;;;;;;;3.39;100.00;100241.86;214523;1285;153672;-87
2023/04/02 04:19:36;;;;;;;3.80;1.40;;;;;;;3.35;100.00;100245.44;214138;1291;125454;-85
2023/04/02 04:24:38;;;;;;;4.00;2.10;;;;;;;3.35;100.00;100256.33;214670;1285;139113;-87
2023/04/02 04:30:13;;;;;;;4.20;1.70;;;;;;;3.32;100.00;100265.17;214109;1285;138967;-86
2023/04/02 04:35:31;;;;;;;5.20;1.40;;;;;;;3.32;100.00;100276.75;214539;1285;138652;-86
2023/04/02 04:40:49;;;;;;;4.20;1.60;;;;;;;3.34;100.00;100279.79;214138;1289;139645;-86
2023/04/02 04:45:57;;;;;;;3.90;1.80;;;;;;;3.37;100.00;100291.98;214967;1285;98028;-85
2023/04/02 04:51:20;;;;;;;5.00;1.50;;;;;;;3.38;100.00;100302.31;214191;1288;139575;-86
2023/04/02 04:56:25;;;;;;;3.10;1.70;;;;;;;3.40;100.00;100309.14;214523;1285;139018;-85
2023/04/02 05:01:52;;;;;;;3.30;1.70;;;;;;;3.42;100.00;100309.77;214264;1286;139316;-85
2023/04/02 05:07:25;;;;;;;4.40;1.70;;;;;;;3.44;100.00;100318.40;214817;1285;139073;-87
2023/04/02 05:12:47;;;;;;;4.30;1.70;;;;;;;3.44;100.00;100331.45;214166;1285;139172;-88
2023/04/02 05:17:56;;;;;;;4.20;1.90;;;;;;;3.46;100.00;100336.02;214733;1285;138958;-84
2023/04/02 05:23:04;;;;;;;4.80;1.80;;;;;;;3.48;100.00;100348.16;214207;1285;139160;-87
2023/04/02 05:28:18;;;;;;;5.10;2.10;;;;;;;3.50;100.00;100352.58;215069;1285;97909;-88
2023/04/02 05:33:29;;;;;;;6.10;2.20;;;;;;;3.51;100.00;100362.73;214280;1286;139606;-85
2023/04/02 05:38:36;;;;;;;5.90;1.60;;;;;;;3.50;100.00;100367.10;214623;1284;139295;-86
2023/04/02 05:43:43;;;;;;;4.20;1.40;;;;;;;3.49;100.00;100371.35;214288;1285;138600;-88
2023/04/02 05:48:51;;;;;;;4.00;1.40;;;;;;;3.48;99.85;100373.91;214748;1285;139263;-83
2023/04/02 05:53:56;;;;;;;4.20;1.60;;;;;;;3.48;99.90;100386.80;214655;1288;138659;-87
2023/04/02 05:59:06;;;;;;;4.00;1.70;;;;;;;3.51;99.84;100400.11;214340;1289;139714;-86
2023/04/02 06:04:26;;;;;;;4.80;1.60;;;;;;;3.53;99.83;100408.84;214798;1286;111485;-88
2023/04/02 06:09:36;;;;;;;3.70;1.40;;;;;;;3.56;99.58;100413.52;214519;1285;139226;-86
2023/04/02 06:14:37;;;;;;;6.80;1.80;;;;;;;3.61;100.00;100418.23;214747;1285;139175;-89
2023/04/02 06:19:38;;;;;;;6.10;1.80;;;;;;;3.64;99.75;100424.88;214192;1285;139601;-86
2023/04/02 06:24:40;;;;;;;6.60;1.90;;;;;;;3.69;99.99;100436.01;214830;1286;138723;-88
2023/04/02 06:29:44;;;;;;;4.70;1.50;;;;;;;3.70;99.32;100439.42;214445;1284;140122;-86
2023/04/02 06:34:45;;;;;;;6.00;1.80;;;;;;;3.72;99.71;100446.88;215082;1286;139257;-87
2023/04/02 06:39:46;;;;;;;5.80;2.10;;;;;;;3.81;99.86;100449.48;214268;1287;138670;-87
2023/04/02 06:44:47;;;;;;;7.60;2.10;;;;;;;3.90;99.48;100455.96;214649;1286;138913;-86
2023/04/02 06:50:02;;;;;;;6.30;2.50;;;;;;;3.93;99.26;100460.66;214245;1285;139184;-86
2023/04/02 06:55:27;;;;;;;5.70;1.80;;;;;;;4.00;99.32;100470.69;214814;1285;138916;-89
2023/04/02 07:00:44;;;;;;;7.50;1.90;;;;;;;4.02;98.87;100480.78;214155;1285;139199;-87
2023/04/02 07:05:45;;;;;;;5.10;1.90;;;;;;;4.08;99.35;100489.78;214807;1288;138803;-85
2023/04/02 07:10:45;;;;;;;9.80;2.50;;;;;;;4.16;98.97;100499.42;214216;1285;139420;-87
2023/04/02 07:15:49;;;;;;;6.70;2.00;;;;;;;4.23;98.85;100504.43;214704;1285;97935;-88
2023/04/02 07:20:49;;;;;;;8.80;1.90;;;;;;;4.27;98.56;100512.38;214289;1289;138967;-88
2023/04/02 07:25:52;;;;;;;8.30;2.10;;;;;;;4.34;98.46;100521.04;214694;1285;138686;-86
2023/04/02 07:30:54;;;;;;;5.90;1.90;;;;;;;4.40;98.54;100531.63;214262;1285;139199;-86
2023/04/02 07:35:56;;;;;;;6.10;1.80;;;;;;;4.44;97.94;100536.69;214963;1288;138543;-86
2023/04/02 07:40:56;;;;;;;5.80;1.90;;;;;;;4.49;97.83;100542.84;214393;1285;139411;-87
2023/04/02 07:45:57;;;;;;;5.60;1.60;;;;;;;4.54;97.61;100546.48;214981;1285;97832;-87
2023/04/02 07:50:58;;;;;;;5.80;1.70;;;;;;;4.61;97.62;100556.86;214307;1285;138449;-87
2023/04/02 07:56:00;;;;;;;5.90;1.60;;;;;;;4.71;97.34;100565.31;214864;1288;139739;-88
2023/04/02 08:01:02;;;;;;;6.40;2.30;;;;;;;4.78;96.98;100570.42;214280;1285;138824;-86
2023/04/02 08:06:03;;;;;;;4.90;1.50;;;;;;;4.86;97.10;100582.40;214764;1285;140688;-87
2023/04/02 08:11:03;;;;;;;3.90;1.30;;;;;;;4.96;96.53;100590.14;214363;1285;138815;-88
2023/04/02 08:16:06;;;;;;;6.00;1.90;;;;;;;4.98;95.95;100592.11;215109;1285;98459;-88
2023/04/02 08:21:08;;;;;;;4.30;1.50;;;;;;;5.09;96.41;100592.41;214469;1285;138706;-87
2023/04/02 08:26:08;;;;;;;5.60;1.50;;;;;;;5.21;96.14;100593.61;214737;1285;138809;-87
2023/04/02 08:31:09;;;;;;;4.50;1.90;;;;;;;5.34;96.13;100603.73;214458;1285;139546;-86
2023/04/02 08:36:15;;;;;;;6.30;1.60;;;;;;;5.43;95.76;100613.27;215164;1285;138921;-85
2023/04/02 08:41:26;;;;;;;6.10;1.30;;;;;;;5.51;94.80;100622.75;214594;1289;138580;-86
2023/04/02 08:46:52;;;;;;;5.30;1.60;;;;;;;5.58;95.53;100625.40;214867;1285;139309;-86
2023/04/02 08:51:53;;;;;;;7.10;2.40;;;;;;;5.74;95.00;100626.33;214373;1285;139248;-87
2023/04/02 08:57:05;;;;;;;6.30;1.80;;;;;;;5.78;94.54;100633.09;214785;1285;139058;-85
2023/04/02 09:02:45;;;;;;;7.30;1.90;;;;;;;5.85;94.73;100631.78;214272;1288;138928;-86
2023/04/02 09:07:48;;;;;;;6.40;1.40;;;;;;;5.99;94.09;100640.30;214743;1288;138330;-86
2023/04/02 09:12:51;;;;;;;4.20;1.60;;;;;;;6.05;93.88;100646.34;214426;1285;139317;-86
2023/04/02 09:17:59;;;;;;;5.40;2.00;;;;;;;6.24;94.17;100650.86;214932;1285;138704;-86
2023/04/02 09:23:00;;;;;;;6.00;1.70;;;;;;;6.39;93.55;100657.58;214402;1288;139691;-87
2023/04/02 09:28:02;;;;;;;4.60;1.90;;;;;;;6.45;92.63;100663.73;214901;1288;97874;-87
2023/04/02 09:33:08;;;;;;;4.70;1.70;;;;;;;6.53;92.50;100671.48;216263;1288;139562;-88
2023/04/02 09:38:31;;;;;;;5.20;1.80;;;;;;;6.56;91.37;100681.39;214866;1285;139026;-88
2023/04/02 09:43:35;;;;;;;5.50;2.20;;;;;;;6.58;91.97;100686.95;214207;1287;138944;-88
2023/04/02 09:48:40;;;;;;;4.20;1.70;;;;;;;6.62;90.76;100690.90;214679;1285;138492;-88
2023/04/02 09:53:47;;;;;;;5.20;1.60;;;;;;;6.66;91.16;100698.41;213950;1285;139241;-87
2023/04/02 09:59:14;;;;;;;5.40;2.00;;;;;;;6.72;90.28;100702.66;214648;1285;139185;-87
2023/04/02 10:04:35;;;;;;;4.60;1.80;;;;;;;6.80;91.18;100707.31;214894;1286;97964;-87
2023/04/02 10:09:37;;;;;;;5.60;1.40;;;;;;;6.94;90.38;100713.52;214258;1285;138881;-86
2023/04/02 10:14:44;;;;;;;6.80;2.20;;;;;;;7.14;91.01;100722.64;214568;1288;138841;-87
2023/04/02 10:19:55;;;;;;;5.30;1.70;;;;;;;7.29;89.55;100726.29;213991;1285;139840;-87
2023/04/02 10:24:57;;;;;;;5.00;1.90;;;;;;;7.54;90.53;100728.78;214597;1285;139232;-89
2023/04/02 10:30:09;;;;;;;5.30;1.80;;;;;;;7.78;89.25;100739.48;213979;1285;139043;-90
2023/04/02 10:35:35;;;;;;;5.10;1.60;;;;;;;7.82;87.56;100745.38;214590;1285;139092;-89
2023/04/02 10:40:42;;;;;;;5.80;1.90;;;;;;;7.82;86.10;100751.65;214337;1291;139322;-87
2023/04/02 10:45:53;;;;;;;4.20;1.90;;;;;;;7.73;86.08;100758.19;214558;1285;98172;-88
2023/04/02 10:51:03;;;;;;;4.10;1.20;;;;;;;7.73;85.59;100767.11;214128;1286;138256;-87
2023/04/02 10:56:09;;;;;;;4.40;1.50;;;;;;;7.75;85.41;100774.08;214874;1285;138540;-89
2023/04/02 11:01:23;;;;;;;5.00;1.90;;;;;;;7.67;84.53;100789.58;214466;1285;138681;-87
2023/04/02 11:06:44;;;;;;;5.80;1.90;;;;;;;7.65;85.02;100794.67;216120;1286;138780;-89
2023/04/02 11:11:50;;;;;;;5.30;1.90;;;;;;;7.56;84.62;100804.27;214025;1285;139204;-86
2023/04/02 11:16:53;;;;;;;3.60;1.50;;;;;;;7.58;85.18;100811.85;215271;1285;138798;-88
2023/04/02 11:21:59;;;;;;;5.60;2.20;;;;;;;7.52;84.90;100813.70;214610;1285;139409;-87
2023/04/02 11:27:03;;;;;;;4.30;1.70;;;;;;;7.50;84.62;100828.59;214889;1285;138534;-87
2023/04/02 11:32:19;;;;;;;6.30;2.10;;;;;;;7.39;83.04;100841.80;214236;1285;139709;-87
2023/04/02 11:37:44;;;;;;;7.60;2.80;;;;;;;7.17;82.71;100847.23;214786;1288;139418;-89
2023/04/02 11:42:46;;;;;;;3.30;2.20;;;;;;;7.01;82.55;100848.20;214334;1288;141389;-87
2023/04/02 11:47:59;;;;;;;5.30;1.70;;;;;;;6.97;83.81;100850.34;215009;1286;139492;-87
2023/04/02 11:53:12;;;;;;;5.90;2.00;;;;;;;7.02;84.36;100855.83;214285;1284;139175;-85
2023/04/02 11:58:42;;;;;;;3.40;1.60;;;;;;;7.13;84.02;100861.26;215011;1285;105592;-87
2023/04/02 12:03:51;;;;;;;3.20;1.50;;;;;;;7.19;83.55;100869.19;218108;1285;138073;-87
2023/04/02 12:09:04;;;;;;;6.60;3.70;;;;;;;7.25;82.55;100876.25;218628;1285;140490;-88
2023/04/02 12:14:29;;;;;;;15.80;9.50;;;;;;;7.37;82.39;100881.34;218994;1288;138838;-88
2023/04/02 12:19:30;;;;;;;50.40;28.90;;;;;;;7.46;82.02;100884.83;214320;1285;139580;-90
2023/04/02 12:24:31;;;;;;;12.40;5.30;;;;;;;7.50;81.60;100883.67;214787;1285;139379;-89
2023/04/02 12:29:32;;;;;;;35.50;20.00;;;;;;;7.54;81.49;100893.83;214236;1285;139106;-89
2023/04/02 12:34:32;;;;;;;23.70;13.60;;;;;;;7.57;80.81;100896.80;214940;1286;138969;-88
2023/04/02 12:39:33;;;;;;;33.40;12.00;;;;;;;7.54;80.91;100901.73;214288;1285;139050;-87
2023/04/02 12:44:34;;;;;;;19.10;8.70;;;;;;;7.55;81.09;100902.70;214700;1286;138918;-87
2023/04/02 12:49:40;;;;;;;19.80;7.30;;;;;;;7.62;81.54;100905.65;214757;1285;139215;-89
2023/04/02 12:54:51;;;;;;;13.40;4.80;;;;;;;7.73;81.78;100903.70;215157;1288;138894;-89
2023/04/02 12:59:53;;;;;;;7.00;2.30;;;;;;;7.81;80.67;100911.09;214334;1289;140217;-88
2023/04/02 13:04:56;;;;;;;6.50;2.00;;;;;;;7.80;80.53;100915.67;215097;1291;138626;-88
2023/04/02 13:10:00;;;;;;;6.60;2.60;;;;;;;7.84;80.22;100918.37;214571;1287;138923;-87
2023/04/02 13:15:03;;;;;;;6.30;2.00;;;;;;;7.82;79.26;100923.48;215176;1289;138375;-90
2023/04/02 13:20:30;;;;;;;5.60;2.80;;;;;;;7.80;79.34;100926.55;214409;1285;138945;-90
2023/04/02 13:25:35;;;;;;;5.60;2.10;;;;;;;7.77;77.79;100930.54;214596;1288;139171;-88
2023/04/02 13:30:35;;;;;;;4.50;1.90;;;;;;;7.73;78.46;100934.73;214399;1285;138843;-89
2023/04/02 13:35:36;;;;;;;5.40;1.80;;;;;;;7.74;77.89;100935.06;214901;1289;138793;-87
2023/04/02 13:40:38;;;;;;;6.90;1.70;;;;;;;7.77;78.22;100937.52;214640;1289;139396;-88
2023/04/02 13:45:40;;;;;;;4.70;1.80;;;;;;;7.80;77.61;100945.11;215484;1285;98142;-89
2023/04/02 13:50:41;;;;;;;7.40;2.40;;;;;;;7.81;77.26;100950.46;214381;1286;139634;-86
2023/04/02 13:55:42;;;;;;;6.70;2.80;;;;;;;7.78;75.12;100955.70;215129;1285;139153;-88
2023/04/02 14:00:42;;;;;;;4.20;1.40;;;;;;;7.79;76.11;100959.19;214493;1289;138826;-88
2023/04/02 14:06:20;;;;;;;4.90;1.40;;;;;;;7.86;75.91;100968.37;214881;1285;138674;-89
2023/04/02 14:11:24;;;;;;;4.20;1.50;;;;;;;7.79;74.54;100967.86;214536;1286;138757;-89
2023/04/02 14:16:42;;;;;;;3.30;1.40;;;;;;;7.75;74.48;100973.15;214857;1288;99243;-89
2023/04/02 14:22:00;;;;;;;4.90;1.50;;;;;;;7.71;74.02;100973.33;214548;1289;138604;-89
2023/04/02 14:27:22;;;;;;;5.20;1.90;;;;;;;7.74;75.30;100979.52;214863;1288;138406;-87
2023/04/02 14:32:34;;;;;;;9.10;2.10;;;;;;;7.84;75.89;100981.16;214229;1286;138657;-88
2023/04/02 14:37:59;;;;;;;5.50;1.60;;;;;;;7.88;75.20;100987.78;214789;1285;139381;-88
2023/04/02 14:43:14;;;;;;;3.50;1.20;;;;;;;7.86;74.48;100993.22;214303;1290;139307;-88
2023/04/02 14:48:31;;;;;;;6.60;2.70;;;;;;;7.90;73.83;100997.35;214911;1284;138674;-86
2023/04/02 14:54:08;;;;;;;52.60;31.80;;;;;;;7.92;73.71;101003.17;214332;1289;138537;-87
2023/04/02 14:59:08;;;;;;;40.60;15.40;;;;;;;7.91;72.39;101004.02;214481;1285;139934;-87
2023/04/02 15:04:19;;;;;;;19.00;9.50;;;;;;;7.90;71.30;101008.77;215212;1285;98001;-87
2023/04/02 15:09:27;;;;;;;14.50;5.80;;;;;;;7.85;70.14;101010.64;214424;1285;138817;-87
2023/04/02 15:14:39;;;;;;;9.90;3.50;;;;;;;7.92;71.68;101009.86;215024;1286;138501;-89
2023/04/02 15:19:40;;;;;;;7.60;3.10;;;;;;;7.93;69.18;101029.23;214333;1287;139437;-87
2023/04/02 15:24:56;;;;;;;7.20;2.40;;;;;;;7.85;69.28;101024.19;214833;1291;138717;-89
2023/04/02 15:30:13;;;;;;;11.10;3.60;;;;;;;7.89;67.62;101029.02;214555;1285;138794;-88
2023/04/02 15:35:35;;;;;;;;;;;;;;;7.91;67.15;101036.66;214907;1288;138710;-88
2023/04/02 15:40:50;;;;;;;5.00;1.80;;;;;;;7.86;67.85;101050.29;214584;1288;126905;-86
2023/04/02 15:46:15;;;;;;;9.50;3.70;;;;;;;7.89;68.48;101056.50;215662;1286;112188;-88
2023/04/02 15:51:32;;;;;;;2.90;1.60;;;;;;;7.82;66.14;101069.02;214471;1288;139932;-87
2023/04/02 15:56:44;;;;;;;5.10;1.70;;;;;;;7.69;66.96;101074.09;214678;1285;139274;-87
2023/04/02 16:01:50;;;;;;;3.50;1.30;;;;;;;7.53;66.37;101082.46;214213;1285;139256;-88
2023/04/02 16:06:52;;;;;;;3.10;1.00;;;;;;;7.35;65.99;101090.61;214987;1285;138502;-86
2023/04/02 16:11:58;;;;;;;5.60;1.60;;;;;;;7.24;67.71;101094.37;214161;1291;269252;-85
2023/04/02 16:17:05;;;;;;;5.90;1.50;;;;;;;7.14;67.62;101101.63;215413;1288;139004;-89
2023/04/02 16:22:16;;;;;;;2.60;0.90;;;;;;;6.97;66.17;101112.35;214755;1285;138622;-85
2023/04/02 16:27:28;;;;;;;5.70;2.00;;;;;;;6.85;67.58;101122.75;214965;1286;139660;-88
2023/04/02 16:32:46;;;;;;;5.90;1.90;;;;;;;6.69;66.23;101129.43;214589;1286;138996;-89
2023/04/02 16:38:10;;;;;;;3.30;1.30;;;;;;;6.55;65.78;101141.48;215419;1289;139412;-87
2023/04/02 16:43:19;;;;;;;1.70;0.70;;;;;;;6.43;65.09;101150.42;214823;1288;139351;-91
2023/04/02 16:48:39;;;;;;;6.10;1.20;;;;;;;6.27;65.37;101165.23;215244;1292;138621;-85
2023/04/02 16:54:11;;;;;;;5.10;1.20;;;;;;;6.13;65.09;101171.41;214453;1289;139520;-88
2023/04/02 16:59:41;;;;;;;4.10;1.20;;;;;;;5.98;66.30;101181.13;214121;1288;138508;-85
2023/04/02 17:04:57;;;;;;;6.00;1.90;;;;;;;5.88;66.31;101189.52;215012;1286;100434;-87
2023/04/02 17:10:23;;;;;;;8.10;1.90;;;;;;;5.71;65.77;101196.27;214272;1289;138702;-86
2023/04/02 17:15:27;;;;;;;7.70;1.40;;;;;;;5.57;66.52;101206.20;214942;1289;138420;-86
2023/04/02 17:20:27;;;;;;;4.40;1.30;;;;;;;5.40;65.41;101217.91;214220;1286;139196;-86
2023/04/02 17:25:32;;;;;;;5.10;1.50;;;;;;;5.25;65.94;101228.01;214897;1291;139029;-86
2023/04/02 17:30:41;;;;;;;10.40;1.50;;;;;;;5.09;65.95;101239.52;214387;1285;139129;-87
2023/04/02 17:35:57;;;;;;;6.80;1.90;;;;;;;4.94;65.58;101254.17;214994;1287;138748;-86
2023/04/02 17:41:20;;;;;;;6.60;1.60;;;;;;;4.79;66.27;101269.13;214528;1288;138816;-87
2023/04/02 17:46:34;;;;;;;11.00;2.70;;;;;;;4.64;67.42;101272.14;214990;1285;110161;-86
2023/04/02 17:51:45;;;;;;;7.80;2.40;;;;;;;4.49;67.25;101284.48;214408;1288;139279;-86
2023/04/02 17:56:53;;;;;;;7.80;2.20;;;;;;;4.34;68.07;101297.69;214686;1288;138584;-87
2023/04/02 18:02:12;;;;;;;8.70;2.10;;;;;;;4.20;68.53;101302.44;214293;1289;139067;-88
2023/04/02 18:07:34;;;;;;;10.20;2.10;;;;;;;4.08;68.48;101315.41;214774;1290;140498;-88
2023/04/02 18:12:55;;;;;;;7.40;2.10;;;;;;;3.97;69.07;101328.65;214260;1292;138692;-90
2023/04/02 18:18:05;;;;;;;9.20;3.10;;;;;;;3.86;68.71;101343.64;214796;1289;140543;-86
2023/04/02 18:23:23;;;;;;;4.50;1.60;;;;;;;3.75;68.53;101351.83;214333;1289;141017;-86
2023/04/02 18:29:00;;;;;;;9.10;2.20;;;;;;;3.64;68.69;101358.61;214997;1289;111567;-86
2023/04/02 18:34:07;;;;;;;12.90;4.50;;;;;;;3.51;68.80;101372.47;214478;1286;138548;-85
2023/04/02 18:39:20;;;;;;;9.10;1.90;;;;;;;3.42;69.61;101386.11;214375;1286;139187;-85
2023/04/02 18:44:52;;;;;;;6.50;1.90;;;;;;;3.32;69.79;101395.38;214953;1285;139835;-84
2023/04/02 18:50:10;;;;;;;6.00;1.80;;;;;;;3.22;69.59;101399.95;214518;1286;139089;-84
2023/04/02 18:55:30;;;;;;;7.80;2.00;;;;;;;3.14;69.09;101407.86;214740;1288;139548;-83
2023/04/02 19:00:37;;;;;;;5.40;1.70;;;;;;;3.06;69.46;101416.65;214280;1289;139197;-84
2023/04/02 19:06:00;;;;;;;7.00;1.90;;;;;;;2.98;69.93;101420.30;214954;1289;138505;-84
2023/04/02 19:11:08;;;;;;;4.30;1.30;;;;;;;2.89;70.45;101425.70;214352;1292;138795;-87
2023/04/02 19:16:30;;;;;;;6.70;2.10;;;;;;;2.79;70.66;101433.63;215067;1289;108859;-86
2023/04/02 19:21:37;;;;;;;8.20;1.90;;;;;;;2.72;71.29;101438.31;214402;1288;138980;-87
2023/04/02 19:26:50;;;;;;;7.10;1.70;;;;;;;2.64;71.45;101439.84;214921;1288;138813;-88
2023/04/02 19:32:04;;;;;;;5.10;1.50;;;;;;;2.54;71.38;101447.19;214228;1286;139567;-88
2023/04/02 19:37:14;;;;;;;4.50;1.30;;;;;;;2.45;71.93;101450.88;214809;1285;138939;-88
2023/04/02 19:43:03;;;;;;;4.60;1.30;;;;;;;2.38;71.85;101461.33;214104;1288;139458;-86
2023/04/02 19:48:15;;;;;;;5.80;1.30;;;;;;;2.30;72.08;101460.31;214562;1289;138887;-85
2023/04/02 19:53:16;;;;;;;6.90;1.50;;;;;;;2.23;72.96;101467.05;214445;1286;139582;-85
2023/04/02 19:58:32;;;;;;;8.50;2.00;;;;;;;2.17;73.01;101470.16;215000;1288;97887;-87
2023/04/02 20:03:32;;;;;;;5.70;1.70;;;;;;;2.09;73.25;101475.33;214431;1288;138862;-85
2023/04/02 20:08:35;;;;;;;6.70;1.80;;;;;;;2.00;73.69;101477.36;214882;1285;138687;-87
2023/04/02 20:13:35;;;;;;;9.50;1.90;;;;;;;1.93;73.82;101484.20;214525;1285;138741;-86
2023/04/02 20:18:36;;;;;;;6.10;1.90;;;;;;;1.85;74.24;101489.27;215012;1286;139374;-86
2023/04/02 20:23:36;;;;;;;6.70;2.30;;;;;;;1.79;74.65;101495.77;214122;1286;138955;-84
2023/04/02 20:28:37;;;;;;;6.40;1.90;;;;;;;1.71;75.05;101500.96;214881;1288;97950;-86
2023/04/02 20:33:38;;;;;;;9.50;2.20;;;;;;;1.63;75.34;101504.88;214296;1285;138929;-86
2023/04/02 20:38:38;;;;;;;6.50;1.40;;;;;;;1.54;75.94;101508.04;214854;1286;138515;-85
2023/04/02 20:43:41;;;;;;;6.80;1.90;;;;;;;1.46;75.67;101517.95;214388;1286;139009;-86
2023/04/02 20:48:42;;;;;;;10.00;2.00;;;;;;;1.41;75.94;101523.55;215294;1285;139013;-86
2023/04/02 20:53:42;;;;;;;6.90;1.80;;;;;;;1.36;76.36;101534.52;214734;1289;139280;-85
2023/04/02 20:58:43;;;;;;;7.80;1.80;;;;;;;1.32;76.45;101541.83;215682;1285;97958;-88
2023/04/02 21:03:44;;;;;;;6.00;1.30;;;;;;;1.28;76.66;101545.90;214746;1286;138691;-85
2023/04/02 21:08:45;;;;;;;3.90;1.20;;;;;;;1.24;76.83;101548.97;215309;1288;138832;-83
2023/04/02 21:13:45;;;;;;;6.50;1.60;;;;;;;1.21;77.04;101554.16;215117;1285;138618;-85
2023/04/02 21:18:48;;;;;;;7.00;1.50;;;;;;;1.18;77.42;101557.93;214439;1285;139747;-84
2023/04/02 21:23:58;;;;;;;5.70;1.40;;;;;;;1.14;77.53;101561.40;217586;1287;138589;-86
2023/04/02 21:28:58;;;;;;;7.80;1.30;;;;;;;1.10;77.98;101566.59;214789;1288;139933;-85
2023/04/02 21:33:59;;;;;;;6.50;1.90;;;;;;;1.05;77.92;101567.55;215533;1291;97950;-84
2023/04/02 21:39:03;;;;;;;7.60;2.20;;;;;;;1.01;78.56;101573.83;214817;1288;139869;-85
2023/04/02 21:44:05;;;;;;;7.00;1.60;;;;;;;0.96;78.35;101577.23;215477;1285;138663;-85
2023/04/02 21:49:09;;;;;;;7.40;1.80;;;;;;;0.90;78.66;101584.39;214467;1285;139450;-86
2023/04/02 21:54:09;;;;;;;5.20;1.80;;;;;;;0.84;79.28;101586.73;214814;1287;138623;-86
2023/04/02 21:59:11;;;;;;;9.10;2.30;;;;;;;0.79;79.72;101594.24;214280;1286;139254;-85
2023/04/02 22:04:18;;;;;;;8.50;1.90;;;;;;;0.73;80.01;101595.80;215611;1285;107055;-86
2023/04/02 22:09:21;;;;;;;;;;;;;;;0.68;80.52;101604.19;214288;1291;138809;-85
2023/04/02 22:14:22;;;;;;;7.10;1.60;;;;;;;0.62;80.97;101611.28;214847;1288;124930;-86
2023/04/02 22:19:22;;;;;;;7.40;1.80;;;;;;;0.57;81.18;101620.05;214206;1289;139971;-85
2023/04/02 22:24:23;;;;;;;7.60;1.90;;;;;;;0.52;81.54;101615.76;214718;1285;138783;-88
2023/04/02 22:29:24;;;;;;;6.60;1.70;;;;;;;0.47;82.19;101620.50;214154;1285;138611;-85
2023/04/02 22:34:24;;;;;;;8.90;2.00;;;;;;;0.42;82.25;101624.75;214858;1286;98081;-85
2023/04/02 22:39:25;;;;;;;8.80;1.80;;;;;;;0.37;82.59;101628.73;214269;1285;139282;-85
2023/04/02 22:44:26;;;;;;;6.80;2.30;;;;;;;0.32;83.15;101631.42;214696;1286;138617;-85
2023/04/02 22:49:26;;;;;;;8.00;1.80;;;;;;;0.26;83.49;101633.79;214103;1285;139191;-86
2023/04/02 22:54:26;;;;;;;6.80;1.40;;;;;;;0.21;83.93;101640.15;214731;1285;139144;-85
2023/04/02 22:59:27;;;;;;;5.90;1.60;;;;;;;0.17;84.35;101637.84;214243;1289;138967;-86
2023/04/02 23:04:27;;;;;;;7.90;2.00;;;;;;;0.13;84.62;101646.91;214866;1288;97983;-86
2023/04/02 23:09:28;;;;;;;11.10;1.50;;;;;;;0.09;84.94;101645.45;214240;1285;139091;-85
2023/04/02 23:14:28;;;;;;;7.20;1.60;;;;;;;0.06;85.39;101650.02;214756;1285;138490;-85
2023/04/02 23:19:29;;;;;;;4.40;1.50;;;;;;;0.02;85.41;101651.94;214266;1285;140180;-85
2023/04/02 23:24:29;;;;;;;4.80;1.50;;;;;;;-0.01;85.89;101655.09;214620;1285;139031;-84
2023/04/02 23:29:30;;;;;;;5.00;1.90;;;;;;;-0.04;86.09;101656.73;214131;1285;139344;-86
2023/04/02 23:34:30;;;;;;;8.70;2.00;;;;;;;-0.08;86.20;101658.48;214730;1285;98081;-85
2023/04/02 23:39:30;;;;;;;7.80;1.90;;;;;;;-0.11;86.62;101655.45;214049;1289;138994;-85